sensor_id;sensor_type;location;lat;lon;timestamp;pressure;altitude;pressure_sealevel;temperature;humidity
6899;BME280;3488;42.616;23.350;2023-06-19T00:01:13;63861.25;;;18.02;89.71
6899;BME280;3488;42.616;23.350;2023-06-19T00:03:40;63855.56;;;17.99;89.90
6899;BME280;3488;42.616;23.350;2023-06-19T00:06:08;63856.53;;;17.95;89.90
6899;BME280;3488;42.616;23.350;2023-06-19T00:08:37;63851.38;;;17.93;89.60
6899;BME280;3488;42.616;23.350;2023-06-19T00:11:06;63857.06;;;17.96;90.37
6899;BME280;3488;42.616;23.350;2023-06-19T00:13:34;63846.66;;;17.88;90.31
6899;BME280;3488;42.616;23.350;2023-06-19T00:16:01;63848.78;;;17.93;90.48
6899;BME280;3488;42.616;23.350;2023-06-19T00:18:29;63841.97;;;17.84;91.44
6899;BME280;3488;42.616;23.350;2023-06-19T00:20:56;63840.91;;;17.80;91.60
6899;BME280;3488;42.616;23.350;2023-06-19T00:23:25;63835.22;;;17.77;91.69
6899;BME280;3488;42.616;23.350;2023-06-19T00:25:52;63831.06;;;17.76;92.52
6899;BME280;3488;42.616;23.350;2023-06-19T00:28:19;63829.50;;;17.72;91.63
6899;BME280;3488;42.616;23.350;2023-06-19T00:30:47;63832.56;;;17.70;92.16
6899;BME280;3488;42.616;23.350;2023-06-19T00:33:14;63826.88;;;17.69;90.12
6899;BME280;3488;42.616;23.350;2023-06-19T00:35:41;63821.72;;;17.67;91.10
6899;BME280;3488;42.616;23.350;2023-06-19T00:38:09;63821.63;;;17.59;92.66
6899;BME280;3488;42.616;23.350;2023-06-19T00:40:38;63815.41;;;17.56;93.11
6899;BME280;3488;42.616;23.350;2023-06-19T00:43:05;63808.16;;;17.51;94.54
6899;BME280;3488;42.616;23.350;2023-06-19T00:45:33;63807.09;;;17.50;94.51
6899;BME280;3488;42.616;23.350;2023-06-19T00:48:00;63801.84;;;17.43;95.05
6899;BME280;3488;42.616;23.350;2023-06-19T00:50:29;63797.13;;;17.36;94.64
6899;BME280;3488;42.616;23.350;2023-06-19T00:52:56;63802.34;;;17.41;95.22
6899;BME280;3488;42.616;23.350;2023-06-19T00:55:26;63790.44;;;17.37;95.75
6899;BME280;3488;42.616;23.350;2023-06-19T00:57:57;63795.09;;;17.39;95.83
6899;BME280;3488;42.616;23.350;2023-06-19T01:00:25;63791.97;;;17.36;95.88
6899;BME280;3488;42.616;23.350;2023-06-19T01:02:52;63793.50;;;17.34;96.57
6899;BME280;3488;42.616;23.350;2023-06-19T01:05:21;63784.66;;;17.26;96.56
6899;BME280;3488;42.616;23.350;2023-06-19T01:07:55;63780.00;;;17.24;96.00
6899;BME280;3488;42.616;23.350;2023-06-19T01:10:26;63779.94;;;17.19;96.91
6899;BME280;3488;42.616;23.350;2023-06-19T01:13:00;63775.81;;;17.17;97.27
6899;BME280;3488;42.616;23.350;2023-06-19T01:15:28;63775.31;;;17.17;97.58
6899;BME280;3488;42.616;23.350;2023-06-19T01:17:59;63765.94;;;17.08;97.68
6899;BME280;3488;42.616;23.350;2023-06-19T01:20:27;63766.97;;;17.09;98.11
6899;BME280;3488;42.616;23.350;2023-06-19T01:22:56;63761.81;;;17.06;100.00
6899;BME280;3488;42.616;23.350;2023-06-19T01:25:23;63756.09;;;17.03;100.00
6899;BME280;3488;42.616;23.350;2023-06-19T01:27:51;63750.88;;;16.96;100.00
6899;BME280;3488;42.616;23.350;2023-06-19T01:30:19;63740.97;;;16.86;100.00
6899;BME280;3488;42.616;23.350;2023-06-19T01:32:52;63731.59;;;16.75;100.00
6899;BME280;3488;42.616;23.350;2023-06-19T01:35:23;63712.91;;;16.62;100.00
6899;BME280;3488;42.616;23.350;2023-06-19T01:37:52;63697.31;;;16.47;100.00
6899;BME280;3488;42.616;23.350;2023-06-19T01:40:23;63673.31;;;16.21;100.00
6899;BME280;3488;42.616;23.350;2023-06-19T01:42:52;63676.38;;;16.19;100.00
6899;BME280;3488;42.616;23.350;2023-06-19T01:45:20;63660.84;;;16.09;100.00
6899;BME280;3488;42.616;23.350;2023-06-19T01:47:47;63661.38;;;16.09;100.00
6899;BME280;3488;42.616;23.350;2023-06-19T01:50:14;63658.28;;;16.09;100.00
6899;BME280;3488;42.616;23.350;2023-06-19T01:52:41;63646.34;;;16.00;100.00
6899;BME280;3488;42.616;23.350;2023-06-19T01:55:08;63642.13;;;15.91;100.00
6899;BME280;3488;42.616;23.350;2023-06-19T01:57:37;63647.28;;;15.91;100.00
6899;BME280;3488;42.616;23.350;2023-06-19T02:00:05;63639.00;;;15.88;100.00
6899;BME280;3488;42.616;23.350;2023-06-19T02:02:33;63632.22;;;15.79;100.00
6899;BME280;3488;42.616;23.350;2023-06-19T02:05:00;63624.94;;;15.72;100.00
6899;BME280;3488;42.616;23.350;2023-06-19T02:07:27;63620.81;;;15.70;100.00
6899;BME280;3488;42.616;23.350;2023-06-19T02:09:54;63615.59;;;15.65;100.00
6899;BME280;3488;42.616;23.350;2023-06-19T02:12:21;63615.13;;;15.67;100.00
6899;BME280;3488;42.616;23.350;2023-06-19T02:14:50;63614.53;;;15.62;100.00
6899;BME280;3488;42.616;23.350;2023-06-19T02:17:16;63611.41;;;15.56;100.00
6899;BME280;3488;42.616;23.350;2023-06-19T02:19:44;63606.28;;;15.59;100.00
6899;BME280;3488;42.616;23.350;2023-06-19T02:22:11;63610.88;;;15.56;100.00
6899;BME280;3488;42.616;23.350;2023-06-19T02:24:37;63602.59;;;15.50;100.00
6899;BME280;3488;42.616;23.350;2023-06-19T02:27:05;63606.72;;;15.52;100.00
6899;BME280;3488;42.616;23.350;2023-06-19T02:29:32;63604.22;;;15.57;100.00
6899;BME280;3488;42.616;23.350;2023-06-19T02:32:01;63609.88;;;15.57;100.00
6899;BME280;3488;42.616;23.350;2023-06-19T02:34:29;63597.44;;;15.48;100.00
6899;BME280;3488;42.616;23.350;2023-06-19T02:36:56;63606.22;;;15.54;100.00
6899;BME280;3488;42.616;23.350;2023-06-19T02:39:23;63597.97;;;15.51;100.00
6899;BME280;3488;42.616;23.350;2023-06-19T02:41:50;63601.53;;;15.47;100.00
6899;BME280;3488;42.616;23.350;2023-06-19T02:44:17;63595.34;;;15.46;100.00
6899;BME280;3488;42.616;23.350;2023-06-19T02:46:44;63596.88;;;15.45;100.00
6899;BME280;3488;42.616;23.350;2023-06-19T02:49:13;63593.28;;;15.44;100.00
6899;BME280;3488;42.616;23.350;2023-06-19T02:51:40;63592.25;;;15.43;100.00
6899;BME280;3488;42.616;23.350;2023-06-19T02:54:07;63591.72;;;15.45;100.00
6899;BME280;3488;42.616;23.350;2023-06-19T02:56:34;63594.81;;;15.43;100.00
6899;BME280;3488;42.616;23.350;2023-06-19T02:59:01;63591.16;;;15.39;100.00
6899;BME280;3488;42.616;23.350;2023-06-19T03:01:28;63583.38;;;15.34;100.00
6899;BME280;3488;42.616;23.350;2023-06-19T03:03:56;63594.25;;;15.40;100.00
6899;BME280;3488;42.616;23.350;2023-06-19T03:06:24;63588.53;;;15.37;100.00
6899;BME280;3488;42.616;23.350;2023-06-19T03:08:52;63593.19;;;15.39;100.00
6899;BME280;3488;42.616;23.350;2023-06-19T03:11:19;63591.19;;;15.42;100.00
6899;BME280;3488;42.616;23.350;2023-06-19T03:13:48;63595.31;;;15.43;100.00
6899;BME280;3488;42.616;23.350;2023-06-19T03:16:15;63595.91;;;15.49;100.00
6899;BME280;3488;42.616;23.350;2023-06-19T03:18:42;63600.56;;;15.51;100.00
6899;BME280;3488;42.616;23.350;2023-06-19T03:21:10;63603.66;;;15.54;100.00
6899;BME280;3488;42.616;23.350;2023-06-19T03:23:38;63616.13;;;15.66;100.00
6899;BME280;3488;42.616;23.350;2023-06-19T03:26:06;63614.09;;;15.66;100.00
6899;BME280;3488;42.616;23.350;2023-06-19T03:28:33;63619.28;;;15.71;100.00
6899;BME280;3488;42.616;23.350;2023-06-19T03:31:00;63633.19;;;15.75;100.00
6899;BME280;3488;42.616;23.350;2023-06-19T03:33:28;63629.69;;;15.81;100.00
6899;BME280;3488;42.616;23.350;2023-06-19T03:35:55;63640.59;;;15.92;100.00
6899;BME280;3488;42.616;23.350;2023-06-19T03:38:22;63652.00;;;16.00;100.00
6899;BME280;3488;42.616;23.350;2023-06-19T03:40:51;63659.34;;;16.10;100.00
6899;BME280;3488;42.616;23.350;2023-06-19T03:43:19;63667.66;;;16.18;100.00
6899;BME280;3488;42.616;23.350;2023-06-19T03:45:46;63672.81;;;16.20;100.00
6899;BME280;3488;42.616;23.350;2023-06-19T03:48:13;63682.16;;;16.30;100.00
6899;BME280;3488;42.616;23.350;2023-06-19T03:50:40;63691.00;;;16.36;100.00
6899;BME280;3488;42.616;23.350;2023-06-19T03:53:07;63699.88;;;16.47;100.00
6899;BME280;3488;42.616;23.350;2023-06-19T03:55:34;63706.66;;;16.56;100.00
6899;BME280;3488;42.616;23.350;2023-06-19T03:58:03;63724.78;;;16.66;100.00
6899;BME280;3488;42.616;23.350;2023-06-19T04:00:31;63732.59;;;16.73;100.00
6899;BME280;3488;42.616;23.350;2023-06-19T04:02:58;63732.66;;;16.78;100.00
6899;BME280;3488;42.616;23.350;2023-06-19T04:05:25;63746.69;;;16.92;100.00
6899;BME280;3488;42.616;23.350;2023-06-19T04:07:52;63763.88;;;17.08;100.00
6899;BME280;3488;42.616;23.350;2023-06-19T04:10:19;63765.47;;;17.12;100.00
6899;BME280;3488;42.616;23.350;2023-06-19T04:12:46;63784.13;;;17.23;100.00
6899;BME280;3488;42.616;23.350;2023-06-19T04:15:15;63785.22;;;17.29;100.00
6899;BME280;3488;42.616;23.350;2023-06-19T04:17:42;63796.66;;;17.40;100.00
6899;BME280;3488;42.616;23.350;2023-06-19T04:20:10;63799.81;;;17.46;100.00
6899;BME280;3488;42.616;23.350;2023-06-19T04:22:37;63816.47;;;17.59;100.00
6899;BME280;3488;42.616;23.350;2023-06-19T04:25:06;63830.00;;;17.72;100.00
6899;BME280;3488;42.616;23.350;2023-06-19T04:27:34;63825.84;;;17.71;96.86
6899;BME280;3488;42.616;23.350;2023-06-19T04:30:02;63842.50;;;17.84;97.51
6899;BME280;3488;42.616;23.350;2023-06-19T04:32:31;63844.03;;;17.81;94.22
6899;BME280;3488;42.616;23.350;2023-06-19T04:34:58;63845.13;;;17.89;94.75
6899;BME280;3488;42.616;23.350;2023-06-19T04:37:25;63849.78;;;17.91;93.01
6899;BME280;3488;42.616;23.350;2023-06-19T04:39:52;63857.06;;;17.96;94.01
6899;BME280;3488;42.616;23.350;2023-06-19T04:42:18;63877.94;;;18.18;92.36
6899;BME280;3488;42.616;23.350;2023-06-19T04:44:46;63888.81;;;18.26;91.59
6899;BME280;3488;42.616;23.350;2023-06-19T04:47:13;63892.00;;;18.34;91.34
6899;BME280;3488;42.616;23.350;2023-06-19T04:49:42;63890.97;;;18.33;93.76
6899;BME280;3488;42.616;23.350;2023-06-19T04:52:09;63886.75;;;18.24;89.42
6899;BME280;3488;42.616;23.350;2023-06-19T04:54:36;63896.66;;;18.34;92.07
6899;BME280;3488;42.616;23.350;2023-06-19T04:57:04;63899.25;;;18.36;90.96
6899;BME280;3488;42.616;23.350;2023-06-19T04:59:32;63915.94;;;18.53;93.84
6899;BME280;3488;42.616;23.350;2023-06-19T05:01:59;63932.59;;;18.66;89.59
6899;BME280;3488;42.616;23.350;2023-06-19T05:04:26;63933.19;;;18.74;87.24
6899;BME280;3488;42.616;23.350;2023-06-19T05:06:54;63946.16;;;18.79;87.59
6899;BME280;3488;42.616;23.350;2023-06-19T05:09:22;63956.09;;;18.94;89.46
6899;BME280;3488;42.616;23.350;2023-06-19T05:11:49;63970.66;;;19.03;86.47
6899;BME280;3488;42.616;23.350;2023-06-19T05:14:16;63975.84;;;19.08;88.64
6899;BME280;3488;42.616;23.350;2023-06-19T05:16:43;63989.44;;;19.26;87.28
6899;BME280;3488;42.616;23.350;2023-06-19T05:19:10;63988.94;;;19.25;79.83
6899;BME280;3488;42.616;23.350;2023-06-19T05:21:37;63982.13;;;19.16;81.49
6899;BME280;3488;42.616;23.350;2023-06-19T05:24:05;63981.66;;;19.21;79.23
6899;BME280;3488;42.616;23.350;2023-06-19T05:26:33;63992.06;;;19.28;80.63
6899;BME280;3488;42.616;23.350;2023-06-19T05:29:01;64005.13;;;19.41;77.15
6899;BME280;3488;42.616;23.350;2023-06-19T05:31:28;63994.63;;;19.26;76.35
6899;BME280;3488;42.616;23.350;2023-06-19T05:33:55;63981.56;;;19.11;77.55
6899;BME280;3488;42.616;23.350;2023-06-19T05:36:24;63960.28;;;18.98;83.16
6899;BME280;3488;42.616;23.350;2023-06-19T05:38:51;63958.75;;;19.01;85.29
6899;BME280;3488;42.616;23.350;2023-06-19T05:41:19;63967.03;;;19.04;83.29
6899;BME280;3488;42.616;23.350;2023-06-19T05:43:46;63970.72;;;19.10;82.92
6899;BME280;3488;42.616;23.350;2023-06-19T05:46:13;63987.34;;;19.21;82.45
6899;BME280;3488;42.616;23.350;2023-06-19T05:48:40;63974.84;;;19.09;78.40
6899;BME280;3488;42.616;23.350;2023-06-19T05:51:07;63980.53;;;19.12;81.66
6899;BME280;3488;42.616;23.350;2023-06-19T05:53:34;63992.56;;;19.26;82.36
6899;BME280;3488;42.616;23.350;2023-06-19T05:56:01;63998.31;;;19.32;78.79
6899;BME280;3488;42.616;23.350;2023-06-19T05:58:30;63997.22;;;19.28;80.83
6899;BME280;3488;42.616;23.350;2023-06-19T06:00:57;63995.69;;;19.29;76.85
6899;BME280;3488;42.616;23.350;2023-06-19T06:03:24;64009.28;;;19.45;75.75
6899;BME280;3488;42.616;23.350;2023-06-19T06:05:51;64015.56;;;19.51;76.65
6899;BME280;3488;42.616;23.350;2023-06-19T06:08:19;64033.22;;;19.63;79.88
6899;BME280;3488;42.616;23.350;2023-06-19T06:10:46;64020.25;;;19.55;74.92
6899;BME280;3488;42.616;23.350;2023-06-19T06:13:13;64002.47;;;19.33;76.42
6899;BME280;3488;42.616;23.350;2023-06-19T06:15:42;64015.50;;;19.46;76.75
6899;BME280;3488;42.616;23.350;2023-06-19T06:18:09;64024.41;;;19.60;77.41
6899;BME280;3488;42.616;23.350;2023-06-19T06:20:37;64032.75;;;19.65;77.38
6899;BME280;3488;42.616;23.350;2023-06-19T06:23:05;64015.56;;;19.53;77.36
6899;BME280;3488;42.616;23.350;2023-06-19T06:25:32;64009.84;;;19.48;75.86
6899;BME280;3488;42.616;23.350;2023-06-19T06:27:59;64022.88;;;19.61;77.09
6899;BME280;3488;42.616;23.350;2023-06-19T06:30:26;64024.94;;;19.60;77.38
6899;BME280;3488;42.616;23.350;2023-06-19T06:32:55;64036.41;;;19.69;76.19
6899;BME280;3488;42.616;23.350;2023-06-19T06:35:22;64030.16;;;19.65;75.57
6899;BME280;3488;42.616;23.350;2023-06-19T06:37:49;64028.56;;;19.61;75.22
6899;BME280;3488;42.616;23.350;2023-06-19T06:40:17;64029.63;;;19.62;73.58
6899;BME280;3488;42.616;23.350;2023-06-19T06:42:46;64049.44;;;19.84;74.16
6899;BME280;3488;42.616;23.350;2023-06-19T06:45:14;64057.25;;;19.89;71.09
6899;BME280;3488;42.616;23.350;2023-06-19T06:47:41;64037.47;;;19.72;73.11
6899;BME280;3488;42.616;23.350;2023-06-19T06:50:10;64057.25;;;19.89;70.91
6899;BME280;3488;42.616;23.350;2023-06-19T06:52:37;64072.34;;;20.01;75.28
6899;BME280;3488;42.616;23.350;2023-06-19T06:55:05;64084.94;;;20.18;68.16
6899;BME280;3488;42.616;23.350;2023-06-19T06:57:32;64057.22;;;19.86;71.76
6899;BME280;3488;42.616;23.350;2023-06-19T07:00:00;64083.34;;;20.14;72.65
6899;BME280;3488;42.616;23.350;2023-06-19T07:02:28;64106.31;;;20.36;75.06
6899;BME280;3488;42.616;23.350;2023-06-19T07:04:55;64112.06;;;20.44;71.82
6899;BME280;3488;42.616;23.350;2023-06-19T07:07:24;64065.63;;;19.99;70.50
6899;BME280;3488;42.616;23.350;2023-06-19T07:09:50;64082.81;;;20.13;68.33
6899;BME280;3488;42.616;23.350;2023-06-19T07:12:17;64108.91;;;20.38;72.57
6899;BME280;3488;42.616;23.350;2023-06-19T07:14:45;64132.41;;;20.61;69.48
6899;BME280;3488;42.616;23.350;2023-06-19T07:17:11;64138.19;;;20.72;68.24
6899;BME280;3488;42.616;23.350;2023-06-19T07:19:39;64165.28;;;20.93;65.51
6899;BME280;3488;42.616;23.350;2023-06-19T07:22:06;64138.69;;;20.69;67.07
6899;BME280;3488;42.616;23.350;2023-06-19T07:24:35;64145.47;;;20.76;66.51
6899;BME280;3488;42.616;23.350;2023-06-19T07:27:02;64148.63;;;20.82;64.57
6899;BME280;3488;42.616;23.350;2023-06-19T07:29:29;64140.28;;;20.74;63.50
6899;BME280;3488;42.616;23.350;2023-06-19T07:31:57;64138.69;;;20.67;65.15
6899;BME280;3488;42.616;23.350;2023-06-19T07:34:24;64140.78;;;20.69;64.46
6899;BME280;3488;42.616;23.350;2023-06-19T07:36:51;64167.88;;;20.93;65.63
6899;BME280;3488;42.616;23.350;2023-06-19T07:39:19;64162.72;;;20.95;62.53
6899;BME280;3488;42.616;23.350;2023-06-19T07:41:47;64136.09;;;20.69;63.76
6899;BME280;3488;42.616;23.350;2023-06-19T07:44:14;64164.25;;;20.92;64.12
6899;BME280;3488;42.616;23.350;2023-06-19T07:46:43;64196.13;;;21.22;62.22
6899;BME280;3488;42.616;23.350;2023-06-19T07:49:11;64207.09;;;21.33;61.46
6899;BME280;3488;42.616;23.350;2023-06-19T07:51:38;64190.38;;;21.17;60.83
6899;BME280;3488;42.616;23.350;2023-06-19T07:54:05;64191.94;;;21.18;63.82
6899;BME280;3488;42.616;23.350;2023-06-19T07:56:32;64209.19;;;21.37;61.58
6899;BME280;3488;42.616;23.350;2023-06-19T07:59:00;64194.56;;;21.21;62.09
6899;BME280;3488;42.616;23.350;2023-06-19T08:01:27;64203.94;;;21.30;64.32
6899;BME280;3488;42.616;23.350;2023-06-19T08:03:54;64229.00;;;21.51;62.99
6899;BME280;3488;42.616;23.350;2023-06-19T08:06:21;64246.28;;;21.73;66.92
6899;BME280;3488;42.616;23.350;2023-06-19T08:08:48;64254.59;;;21.76;59.54
6899;BME280;3488;42.616;23.350;2023-06-19T08:11:16;64221.19;;;21.46;61.91
6899;BME280;3488;42.616;23.350;2023-06-19T08:13:43;64210.22;;;21.38;58.39
6899;BME280;3488;42.616;23.350;2023-06-19T08:16:12;64185.66;;;21.12;53.97
6899;BME280;3488;42.616;23.350;2023-06-19T08:18:39;64210.75;;;21.39;58.02
6899;BME280;3488;42.616;23.350;2023-06-19T08:21:06;64220.13;;;21.45;57.96
6899;BME280;3488;42.616;23.350;2023-06-19T08:23:33;64235.31;;;21.62;57.70
6899;BME280;3488;42.616;23.350;2023-06-19T08:26:00;64259.81;;;21.78;53.63
6899;BME280;3488;42.616;23.350;2023-06-19T08:28:27;64252.03;;;21.78;53.87
6899;BME280;3488;42.616;23.350;2023-06-19T08:30:54;64260.91;;;21.85;55.38
6899;BME280;3488;42.616;23.350;2023-06-19T08:33:22;64291.72;;;22.12;51.77
6899;BME280;3488;42.616;23.350;2023-06-19T08:35:49;64296.97;;;22.19;52.88
6899;BME280;3488;42.616;23.350;2023-06-19T08:38:16;64311.59;;;22.33;51.80
6899;BME280;3488;42.616;23.350;2023-06-19T08:40:44;64289.13;;;22.12;52.15
6899;BME280;3488;42.616;23.350;2023-06-19T08:43:11;64298.00;;;22.20;50.65
6899;BME280;3488;42.616;23.350;2023-06-19T08:45:38;64302.69;;;22.25;50.96
6899;BME280;3488;42.616;23.350;2023-06-19T08:48:06;64298.56;;;22.26;49.78
6899;BME280;3488;42.616;23.350;2023-06-19T08:50:35;64307.91;;;22.25;49.93
6899;BME280;3488;42.616;23.350;2023-06-19T08:53:02;64306.88;;;22.26;47.28
6899;BME280;3488;42.616;23.350;2023-06-19T08:55:30;64277.13;;;22.03;49.55
6899;BME280;3488;42.616;23.350;2023-06-19T08:57:57;64299.56;;;22.22;50.04
6899;BME280;3488;42.616;23.350;2023-06-19T09:00:25;64328.81;;;22.47;49.05
6899;BME280;3488;42.616;23.350;2023-06-19T09:03:00;64337.75;;;22.58;46.20
6899;BME280;3488;42.616;23.350;2023-06-19T09:05:28;64348.72;;;22.69;46.83
6899;BME280;3488;42.616;23.350;2023-06-19T09:07:58;64341.41;;;22.64;44.73
6899;BME280;3488;42.616;23.350;2023-06-19T09:10:26;64313.16;;;22.35;45.34
6899;BME280;3488;42.616;23.350;2023-06-19T09:12:58;64313.66;;;22.33;46.04
6899;BME280;3488;42.616;23.350;2023-06-19T09:15:28;64329.88;;;22.51;48.36
6899;BME280;3488;42.616;23.350;2023-06-19T09:18:02;64348.75;;;22.71;44.60
6899;BME280;3488;42.616;23.350;2023-06-19T09:20:29;64353.97;;;22.76;44.14
6899;BME280;3488;42.616;23.350;2023-06-19T09:22:58;64366.53;;;22.91;44.31
6899;BME280;3488;42.616;23.350;2023-06-19T09:25:25;64390.00;;;23.06;43.25
6899;BME280;3488;42.616;23.350;2023-06-19T09:27:53;64401.53;;;23.17;44.01
6899;BME280;3488;42.616;23.350;2023-06-19T09:30:21;64414.63;;;23.32;42.55
6899;BME280;3488;42.616;23.350;2023-06-19T09:32:48;64409.38;;;23.27;41.92
6899;BME280;3488;42.616;23.350;2023-06-19T09:35:15;64371.25;;;22.96;42.71
6899;BME280;3488;42.616;23.350;2023-06-19T09:37:43;64397.38;;;23.16;42.96
6899;BME280;3488;42.616;23.350;2023-06-19T09:40:13;64395.25;;;23.14;42.26
6899;BME280;3488;42.616;23.350;2023-06-19T09:42:41;64395.81;;;23.17;45.65
6899;BME280;3488;42.616;23.350;2023-06-19T09:45:12;64406.25;;;23.27;43.29
6899;BME280;3488;42.616;23.350;2023-06-19T09:47:43;64394.75;;;23.13;39.83
6899;BME280;3488;42.616;23.350;2023-06-19T09:50:12;64397.88;;;23.16;41.82
6899;BME280;3488;42.616;23.350;2023-06-19T09:52:40;64412.03;;;23.32;41.43
6899;BME280;3488;42.616;23.350;2023-06-19T09:55:10;64432.94;;;23.50;41.66
6899;BME280;3488;42.616;23.350;2023-06-19T09:57:41;64448.63;;;23.62;42.41
6899;BME280;3488;42.616;23.350;2023-06-19T10:00:09;64439.75;;;23.59;42.98
6899;BME280;3488;42.616;23.350;2023-06-19T10:02:39;64440.28;;;23.59;44.21
6899;BME280;3488;42.616;23.350;2023-06-19T10:05:07;64457.53;;;23.71;44.07
6899;BME280;3488;42.616;23.350;2023-06-19T10:07:40;64453.88;;;23.70;43.33
6899;BME280;3488;42.616;23.350;2023-06-19T10:10:10;64455.44;;;23.71;43.56
6899;BME280;3488;42.616;23.350;2023-06-19T10:12:40;64450.75;;;23.72;44.61
6899;BME280;3488;42.616;23.350;2023-06-19T10:15:13;64473.75;;;23.86;44.34
6899;BME280;3488;42.616;23.350;2023-06-19T10:17:46;64458.59;;;23.74;41.73
6899;BME280;3488;42.616;23.350;2023-06-19T10:20:25;64455.44;;;23.71;44.21
6899;BME280;3488;42.616;23.350;2023-06-19T10:22:59;64447.56;;;23.61;44.75
6899;BME280;3488;42.616;23.350;2023-06-19T10:25:31;64431.34;;;23.46;45.64
6899;BME280;3488;42.616;23.350;2023-06-19T10:28:01;64419.84;;;23.37;42.21
6899;BME280;3488;42.616;23.350;2023-06-19T10:30:31;64409.88;;;23.23;42.98
6899;BME280;3488;42.616;23.350;2023-06-19T10:33:00;64436.06;;;23.50;41.59
6899;BME280;3488;42.616;23.350;2023-06-19T10:35:37;64460.66;;;23.76;41.56
6899;BME280;3488;42.616;23.350;2023-06-19T10:38:05;64481.06;;;23.96;40.27
6899;BME280;3488;42.616;23.350;2023-06-19T10:40:32;64481.56;;;23.94;41.83
6899;BME280;3488;42.616;23.350;2023-06-19T10:43:01;64487.38;;;24.02;41.85
6899;BME280;3488;42.616;23.350;2023-06-19T10:45:28;64495.22;;;24.10;39.66
6899;BME280;3488;42.616;23.350;2023-06-19T10:47:55;64462.75;;;23.78;38.93
6899;BME280;3488;42.616;23.350;2023-06-19T10:50:22;64451.22;;;23.65;39.77
6899;BME280;3488;42.616;23.350;2023-06-19T10:52:53;64482.13;;;23.97;39.70
6899;BME280;3488;42.616;23.350;2023-06-19T10:55:20;64500.97;;;24.15;39.98
6899;BME280;3488;42.616;23.350;2023-06-19T10:57:48;64506.22;;;24.18;38.86
6899;BME280;3488;42.616;23.350;2023-06-19T11:00:24;64524.03;;;24.40;40.26
6899;BME280;3488;42.616;23.350;2023-06-19T11:02:52;64549.66;;;24.62;38.25
6899;BME280;3488;42.616;23.350;2023-06-19T11:05:20;64559.63;;;24.69;40.69
6899;BME280;3488;42.616;23.350;2023-06-19T11:07:58;64536.03;;;24.46;38.32
6899;BME280;3488;42.616;23.350;2023-06-19T11:10:28;64506.72;;;24.18;40.09
6899;BME280;3488;42.616;23.350;2023-06-19T11:12:57;64526.63;;;24.40;41.78
6899;BME280;3488;42.616;23.350;2023-06-19T11:15:30;64548.06;;;24.58;40.68
6899;BME280;3488;42.616;23.350;2023-06-19T11:17:58;64540.78;;;24.56;40.78
6899;BME280;3488;42.616;23.350;2023-06-19T11:20:26;64546.00;;;24.58;42.06
6899;BME280;3488;42.616;23.350;2023-06-19T11:22:58;64577.94;;;24.89;41.72
6899;BME280;3488;42.616;23.350;2023-06-19T11:25:35;64596.25;;;25.04;42.79
6899;BME280;3488;42.616;23.350;2023-06-19T11:28:02;64551.81;;;24.69;42.83
6899;BME280;3488;42.616;23.350;2023-06-19T11:30:34;64542.34;;;24.60;41.79
6899;BME280;3488;42.616;23.350;2023-06-19T11:33:01;64557.53;;;24.69;41.25
6899;BME280;3488;42.616;23.350;2023-06-19T11:35:32;64573.78;;;24.85;42.95
6899;BME280;3488;42.616;23.350;2023-06-19T11:38:01;64546.03;;;24.61;43.40
6899;BME280;3488;42.616;23.350;2023-06-19T11:40:29;64589.47;;;24.97;43.36
6899;BME280;3488;42.616;23.350;2023-06-19T11:43:04;64555.94;;;24.68;46.14
6899;BME280;3488;42.616;23.350;2023-06-19T11:45:33;64595.25;;;25.05;46.36
6899;BME280;3488;42.616;23.350;2023-06-19T11:48:10;64615.66;;;25.25;43.47
6899;BME280;3488;42.616;23.350;2023-06-19T11:50:38;64664.41;;;25.72;42.83
6899;BME280;3488;42.616;23.350;2023-06-19T11:53:05;64706.34;;;26.12;41.50
6899;BME280;3488;42.616;23.350;2023-06-19T11:55:32;64732.56;;;26.40;41.61
6899;BME280;3488;42.616;23.350;2023-06-19T11:57:59;64725.22;;;26.28;41.14
6899;BME280;3488;42.616;23.350;2023-06-19T12:00:26;64754.06;;;26.60;40.53
6899;BME280;3488;42.616;23.350;2023-06-19T12:02:55;64771.91;;;26.75;41.50
6899;BME280;3488;42.616;23.350;2023-06-19T12:05:24;64823.84;;;27.24;40.89
6899;BME280;3488;42.616;23.350;2023-06-19T12:07:51;64780.81;;;26.76;40.75
6899;BME280;3488;42.616;23.350;2023-06-19T12:10:19;64754.59;;;26.61;41.12
6899;BME280;3488;42.616;23.350;2023-06-19T12:12:46;64749.34;;;26.53;41.87
6899;BME280;3488;42.616;23.350;2023-06-19T12:15:13;64789.75;;;26.92;40.77
6899;BME280;3488;42.616;23.350;2023-06-19T12:17:41;64773.47;;;26.74;40.57
6899;BME280;3488;42.616;23.350;2023-06-19T12:20:11;64744.09;;;26.46;42.07
6899;BME280;3488;42.616;23.350;2023-06-19T12:22:39;64776.63;;;26.82;41.84
6899;BME280;3488;42.616;23.350;2023-06-19T12:25:07;64825.41;;;27.28;39.99
6899;BME280;3488;42.616;23.350;2023-06-19T12:27:35;64842.22;;;27.42;40.23
6899;BME280;3488;42.616;23.350;2023-06-19T12:30:02;64761.91;;;26.65;41.99
6899;BME280;3488;42.616;23.350;2023-06-19T12:32:29;64795.50;;;26.97;40.91
6899;BME280;3488;42.616;23.350;2023-06-19T12:34:56;64801.81;;;27.03;40.67
6899;BME280;3488;42.616;23.350;2023-06-19T12:37:24;64804.97;;;27.09;41.23
6899;BME280;3488;42.616;23.350;2023-06-19T12:39:51;64754.59;;;26.58;42.10
6899;BME280;3488;42.616;23.350;2023-06-19T12:42:18;64721.03;;;26.26;41.98
6899;BME280;3488;42.616;23.350;2023-06-19T12:44:45;64692.75;;;26.04;43.68
6899;BME280;3488;42.616;23.350;2023-06-19T12:47:13;64742.53;;;26.49;41.99
6899;BME280;3488;42.616;23.350;2023-06-19T12:49:40;64727.84;;;26.33;41.31
6899;BME280;3488;42.616;23.350;2023-06-19T12:52:07;64708.47;;;26.14;44.24
6899;BME280;3488;42.616;23.350;2023-06-19T12:54:37;64779.78;;;26.82;41.33
6899;BME280;3488;42.616;23.350;2023-06-19T12:57:06;64834.34;;;27.37;40.51
6899;BME280;3488;42.616;23.350;2023-06-19T12:59:33;64836.44;;;27.39;39.61
6899;BME280;3488;42.616;23.350;2023-06-19T13:02:00;64839.06;;;27.39;40.58
6899;BME280;3488;42.616;23.350;2023-06-19T13:04:27;64771.91;;;26.77;41.39
6899;BME280;3488;42.616;23.350;2023-06-19T13:06:54;64804.94;;;27.06;42.06
6899;BME280;3488;42.616;23.350;2023-06-19T13:09:21;64874.22;;;27.73;39.49
6899;BME280;3488;42.616;23.350;2023-06-19T13:11:50;64914.13;;;28.08;37.94